Time;durP1;ratioP1;P1;durP2;ratioP2;P2;SDS_P1;SDS_P2;PMS_P1;PMS_P2;Temp;Humidity;BMP_temperature;BMP_pressure;BME280_temperature;BME280_humidity;BME280_pressure;Samples;Min_cycle;Max_cycle;Signal;HPM_P1;HPM_P2
2022/03/25 00:02:06;;;;;;;76.25;32.50;;;;;;;6.89;62.71;102915.69;4999891;28;20053;-69
2022/03/25 00:04:32;;;;;;;82.50;32.75;;;;;;;6.78;62.90;102915.00;5001496;28;20049;-69
2022/03/25 00:06:58;;;;;;;81.63;33.80;;;;;;;6.78;62.42;102912.34;5001734;28;20069;-69
2022/03/25 00:09:23;;;;;;;84.07;35.22;;;;;;;6.74;63.13;102915.91;5001582;28;20041;-72
2022/03/25 00:11:48;;;;;;;85.10;34.28;;;;;;;6.67;63.36;102924.84;5001298;28;20498;-69
2022/03/25 00:14:14;;;;;;;86.75;33.85;;;;;;;6.53;63.53;102918.88;5001302;28;20055;-69
2022/03/25 00:16:41;;;;;;;84.38;32.42;;;;;;;6.44;63.48;102912.78;5000986;28;20562;-69
2022/03/25 00:19:08;;;;;;;83.05;32.72;;;;;;;6.53;63.41;102921.53;5000716;28;20077;-70
2022/03/25 00:21:34;;;;;;;83.78;34.08;;;;;;;6.51;62.92;102923.28;5001234;28;20067;-70
2022/03/25 00:24:00;;;;;;;74.10;32.88;;;;;;;6.36;63.21;102921.72;5004433;28;20042;-70
2022/03/25 00:26:25;;;;;;;80.85;34.75;;;;;;;6.21;63.65;102923.66;5004302;28;20053;-69
2022/03/25 00:28:50;;;;;;;72.55;32.25;;;;;;;6.14;63.99;102921.97;5004140;28;20835;-70
2022/03/25 00:31:16;;;;;;;82.25;34.33;;;;;;;6.06;63.92;102931.75;5002808;28;20502;-69
2022/03/25 00:33:43;;;;;;;78.45;33.30;;;;;;;6.15;63.01;102923.72;5002433;28;20042;-70
2022/03/25 00:36:10;;;;;;;87.07;34.80;;;;;;;6.20;62.75;102924.56;5002891;28;20050;-71
2022/03/25 00:38:35;;;;;;;84.57;33.78;;;;;;;6.10;62.73;102925.56;5003319;28;20084;-69
2022/03/25 00:41:06;;;;;;;79.88;34.85;;;;;;;6.00;63.61;102926.53;5004407;28;20056;-70
2022/03/25 00:43:36;;;;;;;89.93;34.45;;;;;;;6.04;63.41;102920.31;5002401;28;20551;-70
2022/03/25 00:46:02;;;;;;;77.47;32.67;;;;;;;6.09;63.28;102925.56;4985852;28;20061;-69
2022/03/25 00:48:27;;;;;;;85.88;35.08;;;;;;;6.02;63.28;102921.22;5002059;28;20030;-69
2022/03/25 00:50:55;;;;;;;79.55;33.28;;;;;;;5.91;63.83;102926.59;5002038;28;20848;-69
2022/03/25 00:53:21;;;;;;;83.88;33.25;;;;;;;5.87;63.54;102919.59;5003684;28;20045;-70
2022/03/25 00:55:47;;;;;;;93.75;34.75;;;;;;;5.81;63.99;102917.00;5002759;28;20042;-70
2022/03/25 00:58:14;;;;;;;88.50;35.42;;;;;;;5.72;64.62;102924.16;5004077;28;20068;-70
2022/03/25 01:00:41;;;;;;;87.28;35.22;;;;;;;5.68;64.41;102921.56;5003283;28;20137;-70
2022/03/25 01:03:07;;;;;;;90.15;34.55;;;;;;;5.58;64.48;102926.06;5000766;28;20072;-70
2022/03/25 01:05:33;;;;;;;86.63;34.90;;;;;;;5.54;65.15;102923.44;5002420;28;20053;-70
2022/03/25 01:07:59;;;;;;;83.97;37.35;;;;;;;5.59;64.61;102924.28;5000740;28;20132;-70
2022/03/25 01:10:25;;;;;;;81.68;35.00;;;;;;;5.52;65.03;102923.44;5000813;28;20042;-69
2022/03/25 01:12:50;;;;;;;85.28;36.17;;;;;;;5.52;64.97;102925.22;4984930;28;20041;-69
2022/03/25 01:15:16;;;;;;;91.72;37.53;;;;;;;5.41;65.10;102931.47;5001067;28;20859;-69
2022/03/25 01:17:41;;;;;;;86.20;35.45;;;;;;;5.24;65.87;102932.50;4984918;28;20030;-70
2022/03/25 01:20:09;;;;;;;91.30;35.10;;;;;;;5.24;65.81;102932.50;5002496;28;20092;-70
2022/03/25 01:22:35;;;;;;;89.53;37.78;;;;;;;5.34;65.56;102936.84;5002977;28;20045;-69
2022/03/25 01:25:02;;;;;;;87.32;36.60;;;;;;;5.31;65.51;102935.09;4984953;28;20871;-69
2022/03/25 01:27:28;;;;;;;80.43;36.40;;;;;;;5.23;66.29;102936.94;5002556;28;20042;-70
2022/03/25 01:29:54;;;;;;;89.15;38.20;;;;;;;5.26;65.84;102939.53;5003270;28;20120;-70
2022/03/25 01:32:20;;;;;;;89.22;36.55;;;;;;;5.12;66.44;102936.09;5001703;28;20041;-69
2022/03/25 01:34:45;;;;;;;89.07;37.53;;;;;;;5.15;66.37;102933.44;5003575;28;20041;-70
2022/03/25 01:37:13;;;;;;;86.75;37.78;;;;;;;5.14;66.67;102934.34;4985493;28;20033;-70
2022/03/25 01:39:38;;;;;;;88.57;37.67;;;;;;;5.10;66.29;102932.59;5001840;28;20037;-69
2022/03/25 01:42:04;;;;;;;93.60;38.88;;;;;;;5.06;66.23;102931.72;5003590;28;20048;-70
2022/03/25 01:44:30;;;;;;;89.53;37.25;;;;;;;4.98;66.78;102927.41;5003721;28;20041;-69
2022/03/25 01:46:59;;;;;;;98.95;37.75;;;;;;;4.83;67.21;102923.97;5001369;28;20148;-70
2022/03/25 01:49:25;;;;;;;89.03;39.80;;;;;;;4.84;67.45;102923.06;5002957;28;20084;-69
2022/03/25 01:51:53;;;;;;;89.32;37.50;;;;;;;4.80;67.55;102923.09;4985293;28;20040;-69
2022/03/25 01:54:28;;;;;;;98.18;39.50;;;;;;;4.81;67.63;102923.06;5003302;28;20048;-69
2022/03/25 01:56:54;;;;;;;100.65;39.08;;;;;;;4.84;67.54;102917.78;5001530;28;20064;-69
2022/03/25 01:59:20;;;;;;;88.82;38.17;;;;;;;4.73;67.82;102919.63;5002147;28;20041;-69
2022/03/25 02:01:47;;;;;;;88.70;38.08;;;;;;;4.66;67.84;102926.69;5002962;28;20077;-69
2022/03/25 02:04:13;;;;;;;96.28;38.42;;;;;;;4.44;67.73;102918.88;5002855;28;20553;-69
2022/03/25 02:06:39;;;;;;;92.57;40.13;;;;;;;4.32;68.41;102919.81;5001089;28;20037;-70
2022/03/25 02:09:04;;;;;;;93.30;39.20;;;;;;;4.45;68.61;102918.88;5000744;28;20038;-69
2022/03/25 02:11:31;;;;;;;94.22;40.15;;;;;;;4.45;68.32;102918.88;5000625;28;20034;-69
2022/03/25 02:13:57;;;;;;;92.78;40.15;;;;;;;4.26;68.47;102920.69;4984575;28;20046;-70
2022/03/25 02:16:43;;;;;;;93.15;38.60;;;;;;;4.05;68.79;102924.28;5000822;28;20691;-69
2022/03/25 02:19:10;;;;;;;100.50;40.35;;;;;;;4.15;69.22;102917.22;4984287;28;20072;-70
2022/03/25 02:21:41;;;;;;;96.43;40.15;;;;;;;4.24;69.61;102922.47;5002514;28;20042;-69
2022/03/25 02:24:09;;;;;;;100.50;42.25;;;;;;;4.17;70.05;102918.13;5001035;28;20495;-69
2022/03/25 02:26:36;;;;;;;97.88;40.90;;;;;;;4.07;70.54;102916.38;4968415;28;20581;-70
2022/03/25 02:29:05;;;;;;;105.20;42.85;;;;;;;4.08;70.43;102913.75;5000511;28;20034;-69
2022/03/25 02:31:31;;;;;;;105.60;40.83;;;;;;;4.07;70.87;102919.03;4984549;28;20033;-69
2022/03/25 02:34:00;;;;;;;108.38;42.67;;;;;;;4.03;70.71;102920.78;4984374;28;20062;-70
2022/03/25 02:36:26;;;;;;;102.40;43.30;;;;;;;4.14;70.75;102919.00;5002605;28;20088;-69
2022/03/25 02:38:51;;;;;;;107.32;42.90;;;;;;;4.03;70.84;102920.78;5000791;28;20053;-70
2022/03/25 02:41:17;;;;;;;115.43;45.17;;;;;;;3.96;71.51;102923.44;4984574;28;20111;-69
2022/03/25 02:43:43;;;;;;;114.05;44.30;;;;;;;3.94;71.21;102918.16;4984202;28;20649;-69
2022/03/25 02:46:09;;;;;;;113.88;45.97;;;;;;;4.01;71.68;102925.19;5000867;28;20049;-69
2022/03/25 02:48:35;;;;;;;114.38;44.22;;;;;;;3.96;71.70;102926.06;5001024;28;20038;-69
2022/03/25 02:51:00;;;;;;;121.32;46.88;;;;;;;3.95;71.95;102924.31;5002702;28;20111;-69
2022/03/25 02:53:27;;;;;;;119.95;45.83;;;;;;;3.89;72.34;102925.22;5002548;28;20053;-70
2022/03/25 02:55:53;;;;;;;127.30;48.83;;;;;;;3.78;72.93;102922.59;5002660;28;20034;-70
2022/03/25 02:58:19;;;;;;;127.88;48.88;;;;;;;3.84;73.45;102922.59;5002881;28;20049;-69
2022/03/25 03:00:44;;;;;;;124.93;47.90;;;;;;;3.78;73.61;102913.81;5002396;28;20038;-71
2022/03/25 03:03:10;;;;;;;133.23;51.47;;;;;;;3.77;73.64;102918.22;4985145;28;20469;-71
2022/03/25 03:05:35;;;;;;;129.27;48.67;;;;;;;3.86;73.50;102919.94;5002236;28;20103;-70
2022/03/25 03:08:01;;;;;;;128.93;50.38;;;;;;;3.83;73.27;102912.91;5002227;28;20055;-70
2022/03/25 03:10:27;;;;;;;125.20;47.85;;;;;;;3.73;73.71;102908.53;5002200;28;20041;-70
2022/03/25 03:12:53;;;;;;;115.80;46.95;;;;;;;3.67;73.29;102916.47;5002292;28;20127;-70
2022/03/25 03:15:20;;;;;;;117.45;48.63;;;;;;;3.60;73.73;102922.63;5002291;28;20093;-70
2022/03/25 03:17:46;;;;;;;122.10;47.97;;;;;;;3.51;73.64;102920.84;5002058;28;20042;-70
2022/03/25 03:20:13;;;;;;;115.40;47.17;;;;;;;3.40;73.60;102914.72;5001900;28;20045;-70
2022/03/25 03:22:39;;;;;;;125.13;48.17;;;;;;;3.20;74.75;102921.75;4984186;28;20041;-70
2022/03/25 03:25:05;;;;;;;128.23;49.80;;;;;;;3.11;74.78;102925.25;5001755;28;20044;-70
2022/03/25 03:27:31;;;;;;;132.27;49.97;;;;;;;3.22;74.92;102918.25;5001586;28;20406;-70
2022/03/25 03:29:58;;;;;;;140.00;52.95;;;;;;;3.32;75.49;102919.13;5001539;28;20052;-70
2022/03/25 03:32:25;;;;;;;140.90;54.65;;;;;;;3.26;75.51;102919.09;5001529;28;20069;-70
2022/03/25 03:34:53;;;;;;;134.20;53.30;;;;;;;3.19;76.12;102917.34;5002126;28;20867;-70
2022/03/25 03:37:18;;;;;;;143.07;53.58;;;;;;;3.15;75.72;102916.47;5001819;28;20038;-70
2022/03/25 03:39:44;;;;;;;142.90;54.17;;;;;;;3.12;76.58;102921.75;5001627;28;20034;-70
2022/03/25 03:42:09;;;;;;;140.27;54.40;;;;;;;3.19;76.86;102915.59;5001983;28;20053;-71
2022/03/25 03:44:36;;;;;;;148.90;55.58;;;;;;;3.18;76.92;102912.97;5001732;28;20046;-70
2022/03/25 03:47:03;;;;;;;147.05;56.22;;;;;;;3.13;77.10;102912.09;5001895;28;20058;-70
2022/03/25 03:49:28;;;;;;;146.52;54.80;;;;;;;3.06;76.69;102914.72;5001646;28;20479;-70
2022/03/25 03:51:54;;;;;;;142.32;54.70;;;;;;;3.04;76.63;102921.72;5001946;28;20045;-70
2022/03/25 03:54:19;;;;;;;150.70;58.78;;;;;;;3.12;76.22;102921.75;5001547;28;20046;-70
2022/03/25 03:56:45;;;;;;;151.30;58.00;;;;;;;3.07;77.34;102923.50;5004294;28;20060;-70
2022/03/25 03:59:10;;;;;;;148.80;57.42;;;;;;;3.09;78.12;102921.72;5005360;28;20053;-70
2022/03/25 04:01:36;;;;;;;157.50;62.80;;;;;;;3.13;77.64;102918.22;5005019;28;20042;-70
2022/03/25 04:04:01;;;;;;;160.98;59.63;;;;;;;3.15;77.71;102915.59;5005148;28;20050;-70
2022/03/25 04:06:27;;;;;;;161.23;58.30;;;;;;;3.00;77.75;102924.34;4987433;28;20052;-70
2022/03/25 04:08:52;;;;;;;178.45;64.43;;;;;;;2.99;78.31;102926.09;5005315;28;20042;-70
2022/03/25 04:11:18;;;;;;;162.63;62.30;;;;;;;2.94;78.63;102929.63;5005423;28;20045;-70
2022/03/25 04:13:45;;;;;;;177.70;66.20;;;;;;;3.08;78.78;102920.84;5006045;28;20052;-70
2022/03/25 04:16:10;;;;;;;174.38;66.75;;;;;;;3.13;79.20;102925.25;5005219;28;20054;-70
2022/03/25 04:18:36;;;;;;;170.95;65.47;;;;;;;3.05;78.81;102927.88;5005885;28;20068;-70
2022/03/25 04:21:02;;;;;;;172.10;64.70;;;;;;;2.91;78.49;102924.31;5005526;28;20042;-70
2022/03/25 04:23:27;;;;;;;174.27;66.78;;;;;;;2.82;78.12;102928.72;5005206;28;20107;-70
2022/03/25 04:25:52;;;;;;;173.82;63.50;;;;;;;2.90;79.46;102933.13;5005437;28;20096;-70
2022/03/25 04:28:18;;;;;;;176.95;66.55;;;;;;;2.92;79.54;102931.38;5005525;28;20041;-70
2022/03/25 04:30:44;;;;;;;180.48;67.10;;;;;;;2.95;80.27;102931.38;5004569;28;20046;-70
2022/03/25 04:33:09;;;;;;;189.52;70.82;;;;;;;2.96;80.19;102928.75;5006115;28;20038;-70
2022/03/25 04:35:35;;;;;;;198.68;70.38;;;;;;;2.98;80.18;102928.75;5005024;28;20080;-70
2022/03/25 04:38:01;;;;;;;191.30;71.50;;;;;;;2.95;79.94;102926.09;5005028;28;20124;-70
2022/03/25 04:40:28;;;;;;;180.57;67.97;;;;;;;2.91;79.41;102930.47;5005139;28;20815;-70
2022/03/25 04:42:56;;;;;;;179.43;68.10;;;;;;;2.85;79.47;102931.34;5005795;28;20156;-69
2022/03/25 04:45:23;;;;;;;185.38;66.97;;;;;;;2.80;80.03;102935.72;5004486;28;20058;-69
2022/03/25 04:47:48;;;;;;;181.57;65.80;;;;;;;2.65;80.42;102932.16;5004334;28;20132;-69
2022/03/25 04:50:14;;;;;;;180.77;66.75;;;;;;;2.56;79.61;102938.28;5004338;28;20684;-69
2022/03/25 04:52:40;;;;;;;167.45;63.70;;;;;;;2.37;79.72;102931.22;5003299;28;20045;-69
2022/03/25 04:55:06;;;;;;;186.00;67.95;;;;;;;2.44;80.32;102943.50;5003199;28;20053;-69
2022/03/25 04:57:31;;;;;;;186.75;65.80;;;;;;;2.47;80.22;102933.00;5003067;28;20612;-69
2022/03/25 04:59:57;;;;;;;191.73;69.35;;;;;;;2.43;80.30;102937.38;4993799;28;20058;-71
2022/03/25 05:02:23;;;;;;;182.95;69.93;;;;;;;2.42;79.45;102932.97;4983467;28;20522;-69
2022/03/25 05:04:48;;;;;;;178.52;67.10;;;;;;;2.39;81.08;102939.97;4965958;28;20492;-70
2022/03/25 05:07:17;;;;;;;182.02;68.25;;;;;;;2.31;79.99;102938.19;4983415;28;20038;-69
2022/03/25 05:09:43;;;;;;;199.57;71.30;;;;;;;2.40;80.37;102933.84;4983853;28;20474;-70
2022/03/25 05:12:09;;;;;;;199.68;71.15;;;;;;;2.36;81.02;102935.59;4984287;28;20048;-69
2022/03/25 05:14:35;;;;;;;188.10;71.18;;;;;;;2.43;81.20;102937.38;4984526;28;20144;-71
2022/03/25 05:17:01;;;;;;;187.52;70.15;;;;;;;2.43;82.31;102937.38;4984339;28;20074;-73
2022/03/25 05:19:27;;;;;;;211.05;74.97;;;;;;;2.50;82.32;102940.91;4984129;28;20046;-70
2022/03/25 05:21:52;;;;;;;210.25;76.72;;;;;;;2.37;82.22;102949.63;4999072;28;20112;-70
2022/03/25 05:24:18;;;;;;;212.88;75.70;;;;;;;2.42;82.67;102948.78;5003927;28;20758;-70
2022/03/25 05:26:44;;;;;;;240.25;76.32;;;;;;;2.47;82.71;102944.41;5003413;28;20053;-69
2022/03/25 05:29:10;;;;;;;221.95;77.60;;;;;;;2.46;82.72;102947.00;5003008;28;20534;-71
2022/03/25 05:31:36;;;;;;;222.45;75.32;;;;;;;2.45;83.00;102946.13;5002917;28;20784;-69
2022/03/25 05:34:04;;;;;;;226.48;80.57;;;;;;;2.46;83.54;102947.00;5002503;28;20400;-69
2022/03/25 05:36:31;;;;;;;228.48;82.35;;;;;;;2.62;82.53;102943.59;5003085;28;20057;-70
2022/03/25 05:38:57;;;;;;;226.40;80.10;;;;;;;2.59;82.76;102946.19;5002391;28;20505;-70
2022/03/25 05:41:23;;;;;;;216.75;76.78;;;;;;;2.63;82.53;102955.88;5002095;28;20037;-70
2022/03/25 05:43:48;;;;;;;237.57;84.25;;;;;;;2.55;83.20;102957.59;5001952;28;20482;-69
2022/03/25 05:46:14;;;;;;;230.23;79.45;;;;;;;2.56;83.30;102952.34;5002384;28;20057;-70
2022/03/25 05:48:39;;;;;;;236.82;79.35;;;;;;;2.50;82.98;102960.19;5002771;28;20145;-70
2022/03/25 05:51:04;;;;;;;240.85;81.72;;;;;;;2.49;83.00;102960.22;5001010;28;20045;-70
2022/03/25 05:53:30;;;;;;;234.93;81.40;;;;;;;2.54;83.92;102961.97;5002477;28;20045;-70
2022/03/25 05:55:55;;;;;;;221.98;79.65;;;;;;;2.56;83.33;102961.97;5002580;28;20034;-70
2022/03/25 05:58:21;;;;;;;247.43;82.43;;;;;;;2.60;83.88;102961.13;4984750;28;20490;-70
2022/03/25 06:00:46;;;;;;;234.63;82.82;;;;;;;2.76;83.01;102967.31;5001898;28;20049;-71
2022/03/25 06:03:12;;;;;;;233.60;84.47;;;;;;;2.74;83.59;102969.09;5002127;28;20049;-69
2022/03/25 06:05:38;;;;;;;251.45;84.05;;;;;;;2.78;83.33;102971.72;5002788;28;20140;-71
2022/03/25 06:08:03;;;;;;;249.43;83.10;;;;;;;2.97;83.20;102964.78;4984948;28;20054;-70
2022/03/25 06:10:29;;;;;;;255.80;85.72;;;;;;;3.00;82.20;102970.03;4985222;28;20037;-72
2022/03/25 06:12:54;;;;;;;238.10;82.93;;;;;;;3.28;81.82;102970.09;5003098;28;20741;-70
2022/03/25 06:15:20;;;;;;;236.13;86.72;;;;;;;3.34;81.92;102963.06;5002720;28;20053;-70
2022/03/25 06:17:50;;;;;;;240.40;84.50;;;;;;;3.33;81.79;102966.56;5002345;28;20046;-70
2022/03/25 06:20:23;;;;;;;239.38;85.50;;;;;;;3.59;80.81;102963.06;5002090;28;20049;-70
2022/03/25 06:22:49;;;;;;;244.77;83.15;;;;;;;3.68;80.01;102964.84;5002535;28;20041;-69
2022/03/25 06:25:16;;;;;;;247.25;88.30;;;;;;;3.73;80.44;102965.72;5002443;28;20099;-70
2022/03/25 06:27:52;;;;;;;221.50;82.90;;;;;;;3.79;79.60;102968.34;4984422;28;20562;-70
2022/03/25 06:30:20;;;;;;;220.32;83.93;;;;;;;3.70;80.40;102968.34;5002010;28;20045;-71
2022/03/25 06:32:45;;;;;;;223.02;86.80;;;;;;;3.82;80.50;102970.97;5002209;28;20049;-70
2022/03/25 06:35:11;;;;;;;227.18;86.32;;;;;;;3.99;79.81;102960.41;5001648;28;20404;-70
2022/03/25 06:37:37;;;;;;;218.13;83.57;;;;;;;4.04;79.81;102971.81;4996706;28;20026;-70
2022/03/25 06:40:07;;;;;;;229.80;84.32;;;;;;;4.21;78.80;102974.41;4993869;28;20471;-70
2022/03/25 06:42:33;;;;;;;212.73;80.80;;;;;;;4.28;78.90;102976.16;5003117;28;20041;-70
2022/03/25 06:44:58;;;;;;;210.18;80.50;;;;;;;4.45;78.89;102984.91;5000621;28;20489;-70
2022/03/25 06:47:23;;;;;;;208.00;81.40;;;;;;;4.52;78.67;102980.47;5000956;28;20453;-69
2022/03/25 06:49:49;;;;;;;215.45;82.22;;;;;;;4.76;78.19;102992.72;4998126;28;20088;-71
2022/03/25 06:52:15;;;;;;;200.70;80.57;;;;;;;4.86;77.92;102987.38;4999239;28;20081;-70
2022/03/25 06:54:40;;;;;;;216.82;84.20;;;;;;;5.21;76.65;102991.56;4999358;28;20084;-68
2022/03/25 06:57:06;;;;;;;202.88;80.47;;;;;;;5.31;76.41;103001.22;4999429;28;20383;-68
2022/03/25 06:59:33;;;;;;;204.25;81.55;;;;;;;5.31;76.63;102995.03;4978493;28;20075;-68
2022/03/25 07:01:58;;;;;;;201.90;79.13;;;;;;;5.45;75.53;102991.41;5000333;28;20050;-69
2022/03/25 07:04:24;;;;;;;196.73;79.35;;;;;;;5.43;76.12;103003.78;5001553;28;20215;-71
2022/03/25 07:07:11;;;;;;;183.38;76.20;;;;;;;5.62;75.90;103000.97;5001123;28;20042;-69
2022/03/25 07:09:38;;;;;;;189.65;79.88;;;;;;;5.84;75.32;103004.34;4993163;28;20038;-69
2022/03/25 07:12:04;;;;;;;194.35;76.38;;;;;;;5.75;75.21;103004.41;4995012;28;20076;-70
2022/03/25 07:14:29;;;;;;;177.32;75.32;;;;;;;5.97;75.73;103012.22;5001072;28;20073;-68
2022/03/25 07:16:55;;;;;;;181.40;76.85;;;;;;;6.21;74.73;103008.41;5000077;28;20546;-69
2022/03/25 07:19:25;;;;;;;191.15;77.93;;;;;;;6.55;73.43;103013.34;4998410;28;20054;-69
2022/03/25 07:21:53;;;;;;;190.38;80.10;;;;;;;6.53;73.75;103014.28;4982339;28;20538;-67
2022/03/25 07:24:21;;;;;;;172.98;73.72;;;;;;;6.62;73.20;103014.16;4999484;28;20050;-67
2022/03/25 07:26:47;;;;;;;182.65;76.05;;;;;;;6.60;72.91;103026.56;4998734;28;20066;-68
2022/03/25 07:29:12;;;;;;;174.25;73.78;;;;;;;6.64;73.63;103026.50;5001346;28;20778;-68
2022/03/25 07:31:38;;;;;;;171.85;74.32;;;;;;;6.60;73.63;103030.09;4998696;28;20041;-68
2022/03/25 07:34:03;;;;;;;168.48;73.68;;;;;;;6.44;73.63;103031.16;4984469;28;20054;-68
2022/03/25 07:36:29;;;;;;;194.02;77.63;;;;;;;7.00;72.57;103038.44;4998610;28;20054;-68
2022/03/25 07:38:54;;;;;;;171.57;74.15;;;;;;;6.78;73.15;103034.31;5000887;28;20047;-68
2022/03/25 07:41:21;;;;;;;174.00;73.05;;;;;;;6.80;72.07;103035.16;5000786;28;20045;-68
2022/03/25 07:43:46;;;;;;;174.45;73.45;;;;;;;7.09;70.70;103034.78;5000063;28;20042;-68
2022/03/25 07:46:13;;;;;;;171.88;75.80;;;;;;;7.55;70.70;103044.72;5003748;28;20062;-68
2022/03/25 07:48:39;;;;;;;174.20;73.85;;;;;;;7.31;71.07;103050.41;4986431;28;20139;-69
2022/03/25 07:51:04;;;;;;;168.45;74.55;;;;;;;7.80;69.66;103050.53;4985343;28;20117;-68
2022/03/25 07:53:32;;;;;;;163.40;71.28;;;;;;;7.84;68.59;103054.91;5002329;28;20076;-68
2022/03/25 07:55:58;;;;;;;169.98;75.35;;;;;;;8.00;69.05;103044.88;5003503;28;20048;-67
2022/03/25 07:58:23;;;;;;;164.45;72.20;;;;;;;8.25;69.16;103048.00;5004180;28;20045;-68
2022/03/25 08:00:50;;;;;;;161.27;73.30;;;;;;;8.25;68.13;103059.50;5002841;28;20048;-68
2022/03/25 08:03:17;;;;;;;166.85;70.03;;;;;;;8.01;68.73;103068.75;5000607;28;20038;-69
2022/03/25 08:05:43;;;;;;;157.95;70.88;;;;;;;8.51;68.30;103058.16;5000454;28;20124;-68
2022/03/25 08:08:09;;;;;;;164.15;75.32;;;;;;;8.38;67.67;103060.16;5003353;28;20054;-67
2022/03/25 08:10:36;;;;;;;160.15;71.05;;;;;;;8.04;68.83;103058.09;5003120;28;20049;-68
2022/03/25 08:13:02;;;;;;;162.43;71.82;;;;;;;8.20;67.96;103065.81;5002586;28;20033;-68
2022/03/25 08:15:29;;;;;;;157.80;72.38;;;;;;;8.22;68.37;103064.84;5003272;28;20057;-68
2022/03/25 08:18:00;;;;;;;157.65;72.15;;;;;;;8.53;68.11;103069.63;4998305;28;20050;-67
2022/03/25 08:20:37;;;;;;;151.00;69.30;;;;;;;8.68;67.51;103069.34;4997612;28;20454;-68
2022/03/25 08:23:04;;;;;;;160.02;71.93;;;;;;;8.21;67.41;103070.22;5002680;28;20045;-69
2022/03/25 08:28:16;;;;;;;166.45;71.60;;;;;;;8.13;67.95;103077.41;5002570;28;20821;-66
2022/03/25 08:30:42;;;;;;;159.55;70.38;;;;;;;8.63;68.43;103083.63;4984341;28;20041;-67
2022/03/25 08:33:08;;;;;;;157.75;69.75;;;;;;;8.69;67.99;103079.09;5001610;28;20065;-67
2022/03/25 08:35:35;;;;;;;161.50;69.40;;;;;;;9.02;67.24;103076.66;5002839;28;20259;-66
2022/03/25 08:38:00;;;;;;;154.02;68.85;;;;;;;9.06;66.32;103076.56;5002425;28;20053;-66
2022/03/25 08:40:30;;;;;;;141.00;66.53;;;;;;;8.95;66.96;103080.34;5002524;28;20037;-66
2022/03/25 08:42:55;;;;;;;146.60;65.32;;;;;;;8.87;67.43;103088.47;5001940;28;20120;-68
2022/03/25 08:45:22;;;;;;;153.35;69.88;;;;;;;8.82;66.85;103083.25;5001017;28;20709;-65
2022/03/25 08:47:51;;;;;;;153.85;69.70;;;;;;;9.39;67.66;103082.06;5002081;28;20045;-67
2022/03/25 08:50:17;;;;;;;150.02;67.25;;;;;;;9.34;65.62;103079.50;5001452;28;20080;-67
2022/03/25 08:52:45;;;;;;;151.07;67.93;;;;;;;9.41;66.02;103087.34;5001760;28;20089;-67
2022/03/25 08:55:11;;;;;;;146.10;67.35;;;;;;;9.04;66.24;103089.03;5002187;28;20824;-67
2022/03/25 08:57:38;;;;;;;156.35;69.57;;;;;;;9.45;66.54;103084.59;5000753;28;20045;-67
2022/03/25 09:00:06;;;;;;;153.18;70.55;;;;;;;9.78;65.54;103090.91;5000476;28;20111;-67
2022/03/25 09:02:32;;;;;;;152.40;70.10;;;;;;;9.94;64.36;103096.75;5001986;28;20050;-68
2022/03/25 09:04:57;;;;;;;149.20;68.88;;;;;;;9.62;64.73;103088.66;5002158;28;20100;-67
2022/03/25 09:07:23;;;;;;;150.63;66.78;;;;;;;9.90;66.95;103087.09;5003767;28;20049;-72
2022/03/25 09:09:48;;;;;;;146.18;67.18;;;;;;;9.99;64.83;103088.63;5003824;28;20137;-65
2022/03/25 09:12:14;;;;;;;138.27;65.38;;;;;;;9.96;63.70;103096.72;4999357;23;20090;-73
2022/03/25 09:14:39;;;;;;;136.98;65.63;;;;;;;10.35;62.58;103085.06;4959133;28;20035;-76
2022/03/25 09:17:05;;;;;;;144.75;68.03;;;;;;;10.44;62.52;103085.72;4968631;28;20073;-75
2022/03/25 09:19:32;;;;;;;151.40;65.47;;;;;;;10.46;63.07;103083.91;4957424;28;20062;-74
2022/03/25 09:21:57;;;;;;;143.88;64.22;;;;;;;10.37;62.64;103090.34;4963060;28;20043;-74
2022/03/25 09:24:23;;;;;;;135.68;62.90;;;;;;;10.67;62.72;103091.31;4965962;28;20093;-74
2022/03/25 09:26:48;;;;;;;128.48;61.45;;;;;;;10.54;60.72;103085.47;4966342;28;20457;-74
2022/03/25 09:29:13;;;;;;;125.88;58.03;;;;;;;10.42;61.50;103088.44;4959200;28;20560;-74
2022/03/25 09:31:42;;;;;;;132.00;59.55;;;;;;;10.57;61.24;103092.50;4962872;28;20404;-73
2022/03/25 09:36:52;;;;;;;123.00;58.85;;;;;;;10.54;60.14;103085.47;4956448;28;20042;-74
2022/03/25 09:39:18;;;;;;;127.22;60.50;;;;;;;10.63;60.37;103087.84;4965302;28;20621;-74
2022/03/25 09:41:45;;;;;;;124.03;57.80;;;;;;;10.85;59.04;103084.63;4974226;28;20046;-75
2022/03/25 09:44:14;;;;;;;124.63;57.25;;;;;;;10.99;58.18;103085.06;4965116;28;20400;-71
2022/03/25 09:46:42;;;;;;;125.93;57.78;;;;;;;11.39;59.89;103086.53;4962880;28;20042;-72
2022/03/25 09:49:08;;;;;;;124.35;59.33;;;;;;;11.22;59.64;103088.88;4945866;28;20042;-72
2022/03/25 09:51:35;;;;;;;127.35;61.35;;;;;;;11.55;58.49;103087.84;4964495;28;20039;-71
2022/03/25 09:54:01;;;;;;;128.80;58.25;;;;;;;11.43;57.76;103084.66;4955757;28;20043;-72
2022/03/25 09:56:27;;;;;;;126.82;57.95;;;;;;;11.50;58.41;103086.25;4969595;28;20049;-73
2022/03/25 09:58:52;;;;;;;128.70;59.78;;;;;;;12.04;58.19;103088.06;4954947;28;20130;-73
2022/03/25 10:01:18;;;;;;;123.45;58.63;;;;;;;11.71;56.02;103084.69;4969697;28;20057;-72
2022/03/25 10:03:43;;;;;;;124.78;59.33;;;;;;;11.66;57.51;103088.38;4952035;28;20890;-72
2022/03/25 10:06:15;;;;;;;129.32;59.60;;;;;;;11.89;59.83;103082.28;4944195;29;20047;-71
2022/03/25 10:08:42;;;;;;;124.78;59.17;;;;;;;11.99;59.43;103080.19;4947537;28;20054;-72
2022/03/25 10:11:18;;;;;;;124.85;59.25;;;;;;;12.09;58.90;103086.09;4963722;28;20126;-72
2022/03/25 10:13:44;;;;;;;125.85;61.47;;;;;;;11.65;57.90;103085.75;4963214;28;20053;-72
2022/03/25 10:16:26;;;;;;;129.80;58.92;;;;;;;12.22;57.15;103084.78;4948140;28;20047;-72
2022/03/25 10:18:53;;;;;;;123.78;58.53;;;;;;;12.18;57.52;103086.66;4952031;28;20074;-73
2022/03/25 10:21:18;;;;;;;119.80;58.47;;;;;;;12.35;56.65;103078.09;4963079;28;20050;-72
2022/03/25 10:23:44;;;;;;;116.30;58.05;;;;;;;12.21;56.15;103074.13;4969110;28;20039;-73
2022/03/25 10:26:09;;;;;;;127.72;59.72;;;;;;;12.73;56.00;103069.59;4966182;28;20034;-73
2022/03/25 10:28:44;;;;;;;119.22;57.83;;;;;;;12.88;56.84;103071.72;4970751;28;20050;-73
2022/03/25 10:31:16;;;;;;;124.20;59.55;;;;;;;12.48;57.01;103075.84;4961260;28;20210;-72
2022/03/25 10:33:49;;;;;;;125.13;59.22;;;;;;;12.75;56.35;103070.41;4957163;28;20117;-72
2022/03/25 10:36:25;;;;;;;119.75;57.72;;;;;;;12.97;56.96;103076.72;4967989;28;20035;-73
2022/03/25 10:38:58;;;;;;;130.10;58.15;;;;;;;12.97;55.25;103071.38;4963882;28;20099;-74
2022/03/25 10:42:00;;;;;;;124.07;58.78;;;;;;;13.17;57.12;103081.34;4963387;28;20046;-71
2022/03/25 10:44:34;;;;;;;117.30;56.47;;;;;;;12.64;54.66;103079.69;4902334;28;20089;-73
2022/03/25 10:47:20;;;;;;;121.57;56.13;;;;;;;12.66;56.85;103077.88;4966774;28;20034;-72
2022/03/25 10:49:47;;;;;;;121.93;59.67;;;;;;;12.85;55.97;103075.38;4969850;28;20054;-72
2022/03/25 10:52:27;;;;;;;121.68;58.05;;;;;;;13.02;57.20;103077.44;4964350;28;20483;-72
2022/03/25 10:55:20;;;;;;;116.93;57.25;;;;;;;13.45;57.20;103074.00;4982972;28;20672;-72
2022/03/25 10:57:58;;;;;;;117.97;57.75;;;;;;;13.29;54.18;103072.84;4986542;28;20053;-74
2022/03/25 11:00:24;;;;;;;123.25;59.55;;;;;;;13.37;54.85;103069.88;4968419;28;20123;-74
2022/03/25 11:02:50;;;;;;;123.22;57.25;;;;;;;13.34;54.54;103067.31;4981240;28;20042;-72
2022/03/25 11:05:15;;;;;;;115.63;57.85;;;;;;;13.45;56.55;103068.66;4981647;28;20046;-73
2022/03/25 11:07:43;;;;;;;115.55;57.33;;;;;;;13.46;53.66;103065.03;4975215;28;20050;-73
2022/03/25 11:10:12;;;;;;;116.68;57.90;;;;;;;13.63;54.36;103074.19;4983695;28;20047;-73
2022/03/25 11:12:43;;;;;;;125.15;59.58;;;;;;;13.90;56.08;103067.69;4951291;28;20074;-74
2022/03/25 11:15:13;;;;;;;104.63;52.60;;;;;;;13.42;53.11;103067.88;4950622;28;20051;-72